Time;durP1;ratioP1;P1;durP2;ratioP2;P2;SDS_P1;SDS_P2;PMS_P1;PMS_P2;Temp;Humidity;BMP_temperature;BMP_pressure;BME280_temperature;BME280_humidity;BME280_pressure;Samples;Min_cycle;Max_cycle;Signal;HPM_P1;HPM_P2
2022/09/22 00:00:31;;;;;;;4.73;4.20;;;;;;;;;;4990718;28;20448;-75
2022/09/22 00:03:00;;;;;;;4.93;4.53;;;;;;;;;;4989685;28;20452;-75
2022/09/22 00:05:27;;;;;;;5.47;4.97;;;;;;;;;;4990855;28;20448;-77
2022/09/22 00:07:54;;;;;;;5.37;4.70;;;;;;;;;;4990524;28;20453;-75
2022/09/22 00:10:22;;;;;;;5.60;5.00;;;;;;;;;;4990697;28;20444;-75
2022/09/22 00:12:49;;;;;;;6.93;4.50;;;;;;;;;;4989824;28;20436;-75
2022/09/22 00:15:16;;;;;;;5.77;5.13;;;;;;;;;;4990471;28;20479;-75
2022/09/22 00:17:43;;;;;;;4.97;4.57;;;;;;;;;;4990047;28;20484;-75
2022/09/22 00:20:13;;;;;;;5.37;4.87;;;;;;;;;;4990319;28;20824;-76
2022/09/22 00:22:40;;;;;;;5.30;4.83;;;;;;;;;;4990346;28;20979;-75
2022/09/22 00:25:08;;;;;;;5.63;4.70;;;;;;;;;;4991155;28;20460;-75
2022/09/22 00:27:35;;;;;;;7.00;5.00;;;;;;;;;;4993170;28;20444;-75
2022/09/22 00:30:02;;;;;;;4.80;4.40;;;;;;;;;;4990483;28;20850;-75
2022/09/22 00:32:29;;;;;;;5.40;4.57;;;;;;;;;;4990748;28;20456;-77
2022/09/22 00:34:56;;;;;;;5.27;4.80;;;;;;;;;;4990631;28;20445;-76
2022/09/22 00:37:24;;;;;;;4.73;4.40;;;;;;;;;;4990449;28;20479;-74
2022/09/22 00:39:52;;;;;;;5.20;4.67;;;;;;;;;;4991148;28;20588;-75
2022/09/22 00:42:21;;;;;;;5.17;4.70;;;;;;;;;;4993928;28;20799;-77
2022/09/22 00:44:48;;;;;;;6.07;5.57;;;;;;;;;;4994605;28;20448;-75
2022/09/22 00:47:19;;;;;;;5.30;4.80;;;;;;;;;;5013439;28;20435;-75
2022/09/22 00:49:48;;;;;;;4.60;4.20;;;;;;;;;;5019525;28;20531;-77
2022/09/22 00:52:16;;;;;;;5.13;4.70;;;;;;;;;;5019394;28;20932;-76
2022/09/22 00:54:45;;;;;;;6.33;5.03;;;;;;;;;;4998003;28;20845;-75
2022/09/22 00:57:14;;;;;;;5.80;5.20;;;;;;;;;;4994734;28;20493;-76
2022/09/22 00:59:42;;;;;;;5.67;5.07;;;;;;;;;;4994204;28;20474;-77
2022/09/22 01:02:09;;;;;;;5.80;5.30;;;;;;;;;;4995314;28;20479;-75
2022/09/22 01:04:36;;;;;;;7.53;5.03;;;;;;;;;;4993565;28;20526;-74
2022/09/22 01:07:03;;;;;;;6.10;5.50;;;;;;;;;;4994215;28;20527;-74
2022/09/22 01:09:32;;;;;;;5.20;4.70;;;;;;;;;;4993634;28;20503;-75
2022/09/22 01:12:01;;;;;;;5.10;4.73;;;;;;;;;;4994014;28;20448;-74
2022/09/22 01:14:34;;;;;;;5.43;4.90;;;;;;;;;;4993540;28;20436;-76
2022/09/22 01:17:04;;;;;;;7.43;5.37;;;;;;;;;;4993676;28;20550;-76
2022/09/22 01:19:50;;;;;;;6.00;5.37;;;;;;;;;;4994305;28;20463;-75
2022/09/22 01:22:25;;;;;;;5.53;5.00;;;;;;;;;;4995034;28;20455;-77
2022/09/22 01:25:06;;;;;;;5.07;4.60;;;;;;;;;;5004772;28;20440;-75
2022/09/22 01:27:42;;;;;;;9.70;5.37;;;;;;;;;;5012846;28;20444;-76
2022/09/22 01:30:17;;;;;;;5.23;4.73;;;;;;;;;;5013633;28;20428;-75
2022/09/22 01:32:51;;;;;;;7.40;6.30;;;;;;;;;;5015844;28;20893;-74
2022/09/22 01:35:21;;;;;;;6.00;5.37;;;;;;;;;;5016301;28;20450;-75
2022/09/22 01:37:55;;;;;;;6.00;5.50;;;;;;;;;;5017916;28;20468;-74
2022/09/22 01:40:26;;;;;;;7.03;6.40;;;;;;;;;;5016297;28;20440;-75
2022/09/22 01:42:55;;;;;;;6.97;6.30;;;;;;;;;;5011417;28;20459;-72
2022/09/22 01:45:24;;;;;;;7.93;6.60;;;;;;;;;;5007916;28;20453;-75
2022/09/22 01:47:54;;;;;;;7.23;6.00;;;;;;;;;;5000310;28;20444;-76
2022/09/22 01:50:24;;;;;;;6.77;5.93;;;;;;;;;;5014450;28;20444;-74
2022/09/22 01:52:52;;;;;;;6.20;5.70;;;;;;;;;;5014548;28;20428;-73
2022/09/22 01:55:21;;;;;;;7.23;6.53;;;;;;;;;;5018646;28;20447;-75
2022/09/22 01:57:52;;;;;;;6.83;6.13;;;;;;;;;;5010522;28;20492;-76
2022/09/22 02:00:19;;;;;;;8.03;7.10;;;;;;;;;;5007940;28;20426;-76
2022/09/22 02:02:50;;;;;;;7.10;5.83;;;;;;;;;;4995876;28;20452;-75
2022/09/22 02:05:20;;;;;;;6.40;5.83;;;;;;;;;;4993318;28;20452;-75
2022/09/22 02:07:49;;;;;;;7.87;7.20;;;;;;;;;;5003643;28;20450;-75
2022/09/22 02:10:18;;;;;;;7.70;6.90;;;;;;;;;;5002418;28;20455;-76
2022/09/22 02:12:48;;;;;;;8.50;6.47;;;;;;;;;;5014034;28;20451;-76
2022/09/22 02:18:00;;;;;;;7.20;6.50;;;;;;;;;;5016230;28;20483;-75
2022/09/22 02:20:27;;;;;;;6.67;6.07;;;;;;;;;;5017255;28;20428;-75
2022/09/22 02:22:54;;;;;;;6.50;5.80;;;;;;;;;;5016737;28;20444;-75
2022/09/22 02:25:22;;;;;;;6.33;5.93;;;;;;;;;;5017969;28;20449;-74
2022/09/22 02:27:50;;;;;;;7.20;5.80;;;;;;;;;;5012477;28;20451;-76
2022/09/22 02:30:17;;;;;;;6.57;5.97;;;;;;;;;;5007535;28;20440;-75
2022/09/22 02:32:47;;;;;;;6.43;5.93;;;;;;;;;;4999011;28;20449;-75
2022/09/22 02:35:16;;;;;;;6.20;5.70;;;;;;;;;;5001655;28;20432;-76
2022/09/22 02:37:47;;;;;;;7.70;6.47;;;;;;;;;;5000916;28;20523;-74
2022/09/22 02:40:19;;;;;;;7.17;6.50;;;;;;;;;;4998510;28;20450;-76
2022/09/22 02:42:48;;;;;;;8.40;6.80;;;;;;;;;;4998861;28;20444;-75
2022/09/22 02:45:18;;;;;;;7.40;6.70;;;;;;;;;;4999434;28;20449;-76
2022/09/22 02:47:46;;;;;;;7.63;5.63;;;;;;;;;;4996448;28;20460;-74
2022/09/22 02:50:15;;;;;;;7.37;6.77;;;;;;;;;;5003274;28;20516;-75
2022/09/22 02:52:43;;;;;;;7.40;6.70;;;;;;;;;;5001969;28;20443;-75
2022/09/22 02:55:11;;;;;;;7.77;7.07;;;;;;;;;;4998648;28;20847;-75
2022/09/22 02:57:38;;;;;;;7.80;7.03;;;;;;;;;;5002296;28;20508;-75
2022/09/22 03:00:06;;;;;;;7.53;6.47;;;;;;;;;;5001832;28;20460;-75
2022/09/22 03:02:33;;;;;;;7.63;6.97;;;;;;;;;;5001021;28;20504;-75
2022/09/22 03:05:00;;;;;;;8.17;6.63;;;;;;;;;;5003078;28;20453;-75
2022/09/22 03:07:27;;;;;;;7.07;6.23;;;;;;;;;;5006980;28;20440;-74
2022/09/22 03:09:55;;;;;;;7.73;7.03;;;;;;;;;;5013536;28;20448;-74
2022/09/22 03:12:22;;;;;;;6.80;6.10;;;;;;;;;;5012984;28;20897;-74
2022/09/22 03:14:49;;;;;;;6.63;5.73;;;;;;;;;;5013531;28;20479;-75
2022/09/22 03:17:17;;;;;;;6.17;5.63;;;;;;;;;;5013701;28;20427;-75
2022/09/22 03:19:44;;;;;;;7.53;5.50;;;;;;;;;;5014715;28;20501;-74
2022/09/22 03:22:11;;;;;;;6.50;5.90;;;;;;;;;;5004934;28;20441;-76
2022/09/22 03:24:38;;;;;;;5.97;5.47;;;;;;;;;;5004500;28;20454;-75
2022/09/22 03:27:06;;;;;;;6.90;6.20;;;;;;;;;;4993151;28;20480;-75
2022/09/22 03:29:33;;;;;;;6.07;5.60;;;;;;;;;;4992467;28;20535;-76
2022/09/22 03:32:00;;;;;;;7.70;6.30;;;;;;;;;;4996270;28;20477;-75
2022/09/22 03:34:27;;;;;;;6.50;5.33;;;;;;;;;;4997508;28;20449;-75
2022/09/22 03:36:54;;;;;;;6.40;5.90;;;;;;;;;;4998414;28;20441;-75
2022/09/22 03:39:21;;;;;;;6.67;6.07;;;;;;;;;;5002713;28;20486;-75
2022/09/22 03:41:49;;;;;;;6.07;5.67;;;;;;;;;;5001063;28;20469;-74
2022/09/22 03:44:17;;;;;;;8.40;7.27;;;;;;;;;;5001054;28;20455;-74
2022/09/22 03:46:44;;;;;;;6.97;6.37;;;;;;;;;;5003718;28;20463;-74
2022/09/22 03:49:11;;;;;;;7.20;6.60;;;;;;;;;;5011884;28;20464;-75
2022/09/22 03:51:39;;;;;;;7.40;6.70;;;;;;;;;;5009124;28;20452;-75
2022/09/22 03:54:06;;;;;;;6.70;6.10;;;;;;;;;;5010972;28;20442;-76
2022/09/22 03:56:33;;;;;;;6.70;6.17;;;;;;;;;;4998175;28;20452;-76
2022/09/22 03:59:00;;;;;;;8.57;6.27;;;;;;;;;;5006475;28;20487;-75
2022/09/22 04:01:28;;;;;;;7.90;7.30;;;;;;;;;;5002828;28;20505;-74
2022/09/22 04:03:55;;;;;;;7.10;6.50;;;;;;;;;;4998333;28;20448;-75
2022/09/22 04:06:23;;;;;;;6.30;5.70;;;;;;;;;;4996207;28;20453;-75
2022/09/22 04:08:50;;;;;;;6.60;6.00;;;;;;;;;;4995264;28;20530;-76
2022/09/22 04:11:17;;;;;;;7.07;6.37;;;;;;;;;;4993391;28;20442;-77
2022/09/22 04:13:44;;;;;;;9.77;7.10;;;;;;;;;;4985100;28;20918;-75
2022/09/22 04:16:11;;;;;;;11.57;10.37;;;;;;;;;;4992143;28;21253;-75
2022/09/22 04:18:39;;;;;;;8.53;7.93;;;;;;;;;;4993410;28;20486;-75
2022/09/22 04:21:06;;;;;;;8.40;7.23;;;;;;;;;;4994172;28;20468;-75
2022/09/22 04:23:33;;;;;;;6.57;6.07;;;;;;;;;;4992535;28;20448;-80
2022/09/22 04:26:01;;;;;;;7.23;6.60;;;;;;;;;;4993122;28;20523;-75
2022/09/22 04:28:28;;;;;;;7.37;6.70;;;;;;;;;;4992758;28;20571;-77
2022/09/22 04:30:55;;;;;;;7.03;6.40;;;;;;;;;;4992989;28;20441;-75
2022/09/22 04:33:23;;;;;;;7.83;7.17;;;;;;;;;;4988183;28;20453;-77
2022/09/22 04:35:51;;;;;;;8.10;7.33;;;;;;;;;;4994826;28;20467;-76
2022/09/22 04:38:18;;;;;;;9.80;8.80;;;;;;;;;;4996346;28;20545;-77
2022/09/22 04:40:48;;;;;;;9.23;8.37;;;;;;;;;;4995035;28;20470;-76
2022/09/22 04:43:15;;;;;;;7.97;7.27;;;;;;;;;;4993822;28;20952;-75
2022/09/22 04:45:44;;;;;;;9.60;7.30;;;;;;;;;;4994911;28;20449;-77
2022/09/22 04:48:11;;;;;;;7.60;7.00;;;;;;;;;;4996782;28;20467;-75
2022/09/22 04:50:38;;;;;;;8.00;7.30;;;;;;;;;;4998986;28;21027;-75
2022/09/22 04:53:08;;;;;;;8.03;7.33;;;;;;;;;;4994863;28;20524;-75
2022/09/22 04:55:35;;;;;;;9.20;8.30;;;;;;;;;;4995437;28;20456;-77
2022/09/22 04:58:02;;;;;;;8.30;7.50;;;;;;;;;;4993358;28;20931;-76
2022/09/22 05:00:29;;;;;;;8.60;7.90;;;;;;;;;;4994607;28;20460;-76
2022/09/22 05:02:56;;;;;;;10.03;7.80;;;;;;;;;;4994846;28;20459;-76
2022/09/22 05:05:23;;;;;;;8.50;7.70;;;;;;;;;;4992755;28;20448;-76
2022/09/22 05:07:52;;;;;;;8.27;7.50;;;;;;;;;;4992220;28;20449;-76
2022/09/22 05:10:23;;;;;;;8.20;7.40;;;;;;;;;;4991683;28;20453;-77
2022/09/22 05:12:52;;;;;;;8.10;7.50;;;;;;;;;;4990927;28;20830;-77
2022/09/22 05:15:20;;;;;;;7.97;7.27;;;;;;;;;;4991951;28;20436;-77
2022/09/22 05:17:47;;;;;;;16.67;12.77;;;;;;;;;;4991283;28;20478;-77
2022/09/22 05:20:14;;;;;;;12.17;10.93;;;;;;;;;;4991465;28;20828;-76
2022/09/22 05:22:42;;;;;;;9.27;8.40;;;;;;;;;;4990755;28;20452;-77
2022/09/22 05:25:11;;;;;;;11.63;8.03;;;;;;;;;;4991574;28;20576;-76
2022/09/22 05:27:43;;;;;;;8.30;7.43;;;;;;;;;;4990771;28;20449;-76
2022/09/22 05:30:10;;;;;;;8.20;7.50;;;;;;;;;;4991115;28;20471;-76
2022/09/22 05:32:37;;;;;;;8.40;7.60;;;;;;;;;;4990227;28;21474;-75
2022/09/22 05:35:05;;;;;;;8.97;7.17;;;;;;;;;;4991428;28;20448;-78
2022/09/22 05:37:32;;;;;;;9.03;8.13;;;;;;;;;;4991311;28;20457;-77
2022/09/22 05:39:59;;;;;;;9.97;9.07;;;;;;;;;;4991429;28;21065;-76
2022/09/22 05:42:26;;;;;;;9.03;8.33;;;;;;;;;;4991020;28;20445;-76
2022/09/22 05:44:54;;;;;;;8.87;7.93;;;;;;;;;;4990741;28;20453;-76
2022/09/22 05:47:21;;;;;;;8.50;7.67;;;;;;;;;;4991257;28;20480;-77
2022/09/22 05:49:48;;;;;;;10.73;8.60;;;;;;;;;;4991137;28;21043;-76
2022/09/22 05:52:15;;;;;;;10.00;8.30;;;;;;;;;;4990866;28;20435;-76
2022/09/22 05:54:42;;;;;;;8.80;8.00;;;;;;;;;;4989511;28;20461;-77
2022/09/22 05:57:09;;;;;;;10.23;8.43;;;;;;;;;;4990993;28;20988;-74
2022/09/22 05:59:36;;;;;;;30.17;17.90;;;;;;;;;;4991033;28;20485;-76
2022/09/22 06:02:07;;;;;;;14.23;9.83;;;;;;;;;;4991156;28;20505;-75
2022/09/22 06:04:34;;;;;;;10.07;9.17;;;;;;;;;;4990407;28;20453;-77
2022/09/22 06:07:01;;;;;;;14.60;13.03;;;;;;;;;;4991487;28;20446;-77
2022/09/22 06:09:28;;;;;;;11.90;10.47;;;;;;;;;;4990823;28;20457;-75
2022/09/22 06:11:56;;;;;;;10.53;8.60;;;;;;;;;;4990469;28;20449;-76
2022/09/22 06:14:23;;;;;;;10.73;9.00;;;;;;;;;;4989834;28;20488;-75
2022/09/22 06:16:50;;;;;;;12.57;10.00;;;;;;;;;;4990488;28;21379;-77
2022/09/22 06:19:18;;;;;;;11.70;9.47;;;;;;;;;;4991349;28;20493;-76
2022/09/22 06:21:45;;;;;;;10.03;9.13;;;;;;;;;;4992035;28;20456;-76
2022/09/22 06:24:12;;;;;;;10.87;9.70;;;;;;;;;;4999221;28;20455;-77
2022/09/22 06:26:39;;;;;;;10.23;9.27;;;;;;;;;;5010129;28;20441;-76
2022/09/22 06:29:07;;;;;;;14.13;9.20;;;;;;;;;;5015363;28;20453;-76
2022/09/22 06:31:34;;;;;;;10.70;9.70;;;;;;;;;;5017790;28;20506;-77
2022/09/22 06:34:01;;;;;;;12.60;8.73;;;;;;;;;;5009784;28;20560;-77
2022/09/22 06:36:30;;;;;;;9.40;8.60;;;;;;;;;;4986795;28;20456;-78
2022/09/22 06:38:58;;;;;;;11.43;9.87;;;;;;;;;;4994718;28;20576;-77
2022/09/22 06:41:25;;;;;;;9.63;8.80;;;;;;;;;;4995337;28;20484;-75
2022/09/22 06:43:54;;;;;;;11.00;8.77;;;;;;;;;;4993888;28;20533;-76
2022/09/22 06:46:23;;;;;;;13.13;9.63;;;;;;;;;;4994742;28;20469;-76
2022/09/22 06:48:50;;;;;;;16.80;8.77;;;;;;;;;;4994528;28;20466;-77
2022/09/22 06:51:17;;;;;;;10.20;9.20;;;;;;;;;;4993452;28;20452;-75
2022/09/22 06:53:46;;;;;;;10.10;9.20;;;;;;;;;;4993128;28;20886;-76
2022/09/22 06:56:13;;;;;;;12.37;9.50;;;;;;;;;;4992691;28;20479;-76
2022/09/22 06:58:42;;;;;;;11.00;8.97;;;;;;;;;;4993317;28;20474;-75
2022/09/22 07:01:09;;;;;;;9.80;8.80;;;;;;;;;;4992744;28;20452;-77
2022/09/22 07:03:39;;;;;;;10.87;9.73;;;;;;;;;;4991873;28;20514;-76
2022/09/22 07:06:06;;;;;;;11.80;9.87;;;;;;;;;;4992503;28;20453;-77
2022/09/22 07:08:34;;;;;;;10.73;9.63;;;;;;;;;;4992354;28;20888;-76
2022/09/22 07:11:06;;;;;;;11.80;9.70;;;;;;;;;;4992567;28;20900;-77
2022/09/22 07:13:34;;;;;;;11.87;9.63;;;;;;;;;;4991834;28;20445;-78
2022/09/22 07:16:01;;;;;;;11.27;9.80;;;;;;;;;;4992172;28;20542;-76
2022/09/22 07:18:29;;;;;;;10.63;9.53;;;;;;;;;;4992485;28;20554;-77
2022/09/22 07:21:01;;;;;;;9.70;8.80;;;;;;;;;;4992227;28;20590;-76
2022/09/22 07:23:28;;;;;;;11.70;9.80;;;;;;;;;;4991740;28;20487;-77
2022/09/22 07:26:00;;;;;;;10.27;9.07;;;;;;;;;;4991796;28;20511;-77
2022/09/22 07:28:28;;;;;;;10.60;9.50;;;;;;;;;;4991660;28;21015;-76
2022/09/22 07:30:57;;;;;;;13.20;10.27;;;;;;;;;;4992766;28;20452;-78
2022/09/22 07:33:24;;;;;;;10.77;9.67;;;;;;;;;;4992112;28;20464;-77
2022/09/22 07:36:00;;;;;;;13.30;10.07;;;;;;;;;;4992744;28;21038;-76
2022/09/22 07:38:32;;;;;;;11.40;10.10;;;;;;;;;;4993344;28;20472;-77
2022/09/22 07:40:59;;;;;;;12.00;9.73;;;;;;;;;;4993910;28;20932;-76
2022/09/22 07:43:26;;;;;;;15.57;9.87;;;;;;;;;;4993350;28;20486;-80
2022/09/22 07:45:56;;;;;;;13.60;9.73;;;;;;;;;;4992978;28;20794;-78
2022/09/22 07:51:04;;;;;;;14.37;10.30;;;;;;;;;;4989967;28;20531;-77
2022/09/22 07:53:31;;;;;;;13.00;10.20;;;;;;;;;;4991119;28;20454;-76
2022/09/22 07:56:02;;;;;;;12.10;10.03;;;;;;;;;;4992048;28;21029;-77
2022/09/22 07:58:29;;;;;;;11.47;8.97;;;;;;;;;;4992993;28;20468;-77
2022/09/22 08:00:58;;;;;;;10.33;9.20;;;;;;;;;;4995171;28;20484;-78
2022/09/22 08:03:25;;;;;;;10.43;9.40;;;;;;;;;;5003283;28;20747;-75
2022/09/22 08:05:52;;;;;;;11.23;9.40;;;;;;;;;;5011442;28;20467;-75
2022/09/22 08:08:22;;;;;;;11.80;9.70;;;;;;;;;;5010977;28;20468;-77
2022/09/22 08:10:49;;;;;;;13.80;10.30;;;;;;;;;;5011836;28;20452;-76
2022/09/22 08:13:19;;;;;;;13.17;10.23;;;;;;;;;;4997295;28;20518;-78
2022/09/22 08:15:46;;;;;;;11.40;10.20;;;;;;;;;;4992073;28;20903;-77
2022/09/22 08:18:14;;;;;;;12.77;8.70;;;;;;;;;;4991140;28;20472;-76
2022/09/22 08:20:43;;;;;;;11.50;9.83;;;;;;;;;;4991613;28;20472;-77
2022/09/22 08:23:10;;;;;;;9.90;8.60;;;;;;;;;;4990628;28;20460;-77
2022/09/22 08:25:38;;;;;;;13.30;8.70;;;;;;;;;;4992277;28;20444;-77
2022/09/22 08:28:05;;;;;;;10.77;8.30;;;;;;;;;;4989886;28;20476;-77
2022/09/22 08:30:35;;;;;;;8.90;8.00;;;;;;;;;;4989255;28;20444;-76
2022/09/22 08:33:13;;;;;;;8.60;7.90;;;;;;;;;;4990698;28;20432;-79
2022/09/22 08:35:54;;;;;;;10.27;6.90;;;;;;;;;;4989429;28;20448;-75
2022/09/22 08:38:26;;;;;;;7.63;6.97;;;;;;;;;;4991755;28;20490;-76
2022/09/22 08:40:59;;;;;;;6.60;6.10;;;;;;;;;;4991018;28;20513;-78
2022/09/22 08:43:30;;;;;;;6.60;6.00;;;;;;;;;;4990571;28;20495;-77
2022/09/22 08:45:57;;;;;;;7.10;6.50;;;;;;;;;;4991083;28;20542;-77
2022/09/22 08:54:04;;;;;;;6.47;5.97;;;;;;;;;;4990066;28;20435;-77
2022/09/22 08:56:34;;;;;;;7.53;6.13;;;;;;;;;;4991234;28;20531;-76
2022/09/22 08:59:06;;;;;;;7.03;6.43;;;;;;;;;;4991141;28;20855;-76
2022/09/22 09:01:41;;;;;;;7.43;6.10;;;;;;;;;;4991024;28;20571;-76
2022/09/22 09:04:21;;;;;;;6.90;5.93;;;;;;;;;;4993364;28;20463;-77
2022/09/22 09:06:52;;;;;;;5.73;5.07;;;;;;;;;;4994021;28;20948;-77
2022/09/22 09:09:28;;;;;;;6.53;5.73;;;;;;;;;;4994315;28;20460;-77
2022/09/22 09:12:02;;;;;;;6.03;5.50;;;;;;;;;;4993963;28;20455;-76
2022/09/22 09:14:37;;;;;;;5.87;5.00;;;;;;;;;;4993578;28;20474;-77
2022/09/22 09:17:08;;;;;;;5.97;5.47;;;;;;;;;;4993822;28;20446;-77
2022/09/22 09:19:39;;;;;;;5.83;5.30;;;;;;;;;;4994141;28;21058;-76
2022/09/22 09:22:13;;;;;;;8.33;5.43;;;;;;;;;;4994389;28;20455;-78
2022/09/22 09:24:44;;;;;;;6.23;5.63;;;;;;;;;;4994598;28;20451;-78
2022/09/22 09:27:12;;;;;;;6.00;5.30;;;;;;;;;;4994596;28;20460;-78
2022/09/22 09:29:43;;;;;;;4.73;4.27;;;;;;;;;;4994162;28;20980;-77
2022/09/22 09:32:15;;;;;;;5.00;4.50;;;;;;;;;;4994498;28;20916;-79
2022/09/22 09:34:48;;;;;;;4.30;4.00;;;;;;;;;;4994064;28;20456;-77
2022/09/22 09:37:17;;;;;;;4.70;4.27;;;;;;;;;;4994198;28;20464;-77
2022/09/22 09:39:45;;;;;;;6.50;4.47;;;;;;;;;;4993609;28;20519;-76
2022/09/22 09:42:18;;;;;;;5.57;4.57;;;;;;;;;;4986794;28;20456;-75
2022/09/22 09:44:52;;;;;;;4.30;4.00;;;;;;;;;;4992843;28;20470;-78
2022/09/22 09:47:25;;;;;;;5.60;3.67;;;;;;;;;;4993763;28;20453;-77
2022/09/22 09:49:53;;;;;;;3.30;3.00;;;;;;;;;;4993119;28;20468;-77
2022/09/22 09:52:21;;;;;;;5.20;3.77;;;;;;;;;;4994053;28;20480;-78
2022/09/22 09:54:49;;;;;;;3.77;3.47;;;;;;;;;;4993602;28;20464;-77
2022/09/22 09:57:17;;;;;;;5.73;4.23;;;;;;;;;;4993049;28;20456;-76
2022/09/22 10:02:32;;;;;;;3.00;2.80;;;;;;;;;;4993129;28;20434;-75
2022/09/22 10:05:01;;;;;;;3.40;3.20;;;;;;;;;;4986739;28;20479;-78
2022/09/22 10:07:31;;;;;;;3.17;2.87;;;;;;;;;;4993635;28;20440;-77
2022/09/22 10:10:19;;;;;;;3.60;2.70;;;;;;;;;;4993671;28;20460;-77
2022/09/22 10:12:46;;;;;;;4.57;2.90;;;;;;;;;;4992754;28;20519;-78
2022/09/22 10:15:23;;;;;;;5.13;2.90;;;;;;;;;;4993422;28;20440;-77
2022/09/22 10:17:50;;;;;;;3.20;2.90;;;;;;;;;;4991697;28;20912;-77
2022/09/22 10:20:20;;;;;;;3.40;3.10;;;;;;;;;;4991515;28;20484;-78
2022/09/22 10:22:49;;;;;;;4.40;2.87;;;;;;;;;;4993938;28;21005;-76
2022/09/22 10:25:20;;;;;;;2.63;2.47;;;;;;;;;;4994831;28;20456;-76
2022/09/22 10:27:59;;;;;;;2.60;2.33;;;;;;;;;;4993402;28;20448;-78
2022/09/22 10:30:26;;;;;;;2.40;2.30;;;;;;;;;;4995193;28;20861;-77
2022/09/22 10:33:07;;;;;;;3.13;2.40;;;;;;;;;;4994780;28;20452;-78
2022/09/22 10:35:35;;;;;;;1.70;1.60;;;;;;;;;;4995647;28;20456;-78
2022/09/22 10:38:09;;;;;;;1.93;1.83;;;;;;;;;;4990081;28;20449;-79
2022/09/22 10:40:38;;;;;;;2.60;1.73;;;;;;;;;;4992275;28;20484;-78
2022/09/22 10:43:07;;;;;;;1.40;1.30;;;;;;;;;;4993236;28;20448;-77
2022/09/22 10:45:42;;;;;;;1.50;1.40;;;;;;;;;;4998819;28;20511;-77
2022/09/22 10:48:15;;;;;;;2.00;1.30;;;;;;;;;;4994129;28;21088;-78
2022/09/22 10:51:00;;;;;;;1.20;1.10;;;;;;;;;;4993673;28;20455;-78
2022/09/22 10:53:36;;;;;;;1.50;1.40;;;;;;;;;;4992376;28;20479;-77
2022/09/22 10:56:08;;;;;;;1.40;1.13;;;;;;;;;;4992879;28;20534;-76
2022/09/22 10:58:56;;;;;;;1.50;1.40;;;;;;;;;;4995150;28;20475;-76
2022/09/22 11:01:32;;;;;;;1.20;1.03;;;;;;;;;;4973992;28;20499;-76
2022/09/22 11:04:17;;;;;;;1.43;1.33;;;;;;;;;;4993294;28;20968;-78
2022/09/22 11:12:44;;;;;;;1.10;1.10;;;;;;;;;;4954979;28;20518;-77
2022/09/22 11:15:25;;;;;;;1.10;1.10;;;;;;;;;;4991300;28;20937;-77
2022/09/22 11:18:12;;;;;;;1.50;1.40;;;;;;;;;;4990942;28;20790;-77
2022/09/22 11:20:40;;;;;;;1.10;1.00;;;;;;;;;;4991535;28;20483;-78
2022/09/22 11:23:31;;;;;;;1.20;1.10;;;;;;;;;;4990549;28;20457;-77
2022/09/22 11:26:08;;;;;;;1.50;1.37;;;;;;;;;;4971210;28;20451;-76
2022/09/22 11:28:42;;;;;;;1.40;1.30;;;;;;;;;;4990624;28;20829;-79
2022/09/22 11:31:10;;;;;;;1.20;1.10;;;;;;;;;;4990616;28;20539;-78
2022/09/22 11:33:56;;;;;;;1.17;1.00;;;;;;;;;;4983441;28;20459;-77
2022/09/22 11:36:30;;;;;;;1.33;1.23;;;;;;;;;;4985900;28;20514;-76
2022/09/22 11:39:05;;;;;;;1.40;1.37;;;;;;;;;;4990098;28;20491;-78
2022/09/22 11:41:38;;;;;;;1.27;1.20;;;;;;;;;;4990511;28;20556;-78
2022/09/22 11:44:23;;;;;;;1.53;1.20;;;;;;;;;;4989988;28;20460;-75
2022/09/22 11:46:56;;;;;;;2.10;1.20;;;;;;;;;;4980875;28;20474;-76
2022/09/22 11:49:28;;;;;;;1.30;1.20;;;;;;;;;;4990021;28;20468;-75
2022/09/22 11:52:03;;;;;;;1.20;1.10;;;;;;;;;;4990541;28;20437;-76
2022/09/22 11:54:37;;;;;;;1.07;1.07;;;;;;;;;;4989950;28;20436;-76
2022/09/22 11:57:08;;;;;;;1.10;1.10;;;;;;;;;;4989240;28;20521;-76
2022/09/22 11:59:37;;;;;;;1.17;1.10;;;;;;;;;;4989832;28;20478;-77
2022/09/22 12:02:11;;;;;;;1.30;1.20;;;;;;;;;;4989979;28;20484;-78
2022/09/22 12:04:40;;;;;;;2.20;1.00;;;;;;;;;;4989763;28;20452;-75
2022/09/22 12:07:09;;;;;;;1.13;1.10;;;;;;;;;;4990439;28;20733;-78
2022/09/22 12:09:38;;;;;;;1.20;1.10;;;;;;;;;;4989753;28;20472;-78
2022/09/22 12:12:08;;;;;;;2.33;1.00;;;;;;;;;;4989868;28;20491;-75
2022/09/22 12:14:37;;;;;;;1.40;1.30;;;;;;;;;;4989436;28;20519;-77
2022/09/22 12:17:06;;;;;;;1.17;1.07;;;;;;;;;;4989483;28;20458;-76
2022/09/22 12:19:39;;;;;;;1.47;1.00;;;;;;;;;;4989795;28;20673;-76
2022/09/22 12:22:11;;;;;;;1.00;1.00;;;;;;;;;;4989649;28;20546;-76
2022/09/22 12:24:38;;;;;;;1.10;1.10;;;;;;;;;;4988859;28;20448;-76
2022/09/22 12:27:20;;;;;;;2.47;1.10;;;;;;;;;;4990247;28;20464;-77
2022/09/22 12:29:54;;;;;;;1.00;1.00;;;;;;;;;;4990344;28;20475;-75
2022/09/22 12:32:23;;;;;;;0.90;0.90;;;;;;;;;;4997992;28;20471;-75
2022/09/22 12:34:51;;;;;;;0.93;0.93;;;;;;;;;;5011169;28;20519;-74
2022/09/22 12:37:28;;;;;;;3.80;1.10;;;;;;;;;;5012608;28;20452;-76
2022/09/22 12:39:55;;;;;;;1.00;0.90;;;;;;;;;;5016916;28;20491;-74
2022/09/22 12:42:28;;;;;;;1.50;1.00;;;;;;;;;;5005887;28;20488;-76
2022/09/22 12:44:57;;;;;;;1.27;1.17;;;;;;;;;;4993476;28;20765;-78
2022/09/22 12:47:26;;;;;;;0.93;0.93;;;;;;;;;;4993519;28;20970;-77
2022/09/22 12:49:55;;;;;;;1.17;0.97;;;;;;;;;;4993200;28;20460;-76
2022/09/22 12:52:58;;;;;;;1.60;1.13;;;;;;;;;;4992868;28;20533;-77
2022/09/22 12:55:37;;;;;;;1.43;1.30;;;;;;;;;;4992824;28;20474;-76
2022/09/22 12:58:25;;;;;;;1.23;1.13;;;;;;;;;;4993139;28;20459;-74
2022/09/22 13:00:53;;;;;;;0.87;0.87;;;;;;;;;;4991875;28;20928;-76
2022/09/22 13:03:38;;;;;;;1.10;1.00;;;;;;;;;;4988951;28;20510;-76
2022/09/22 13:06:36;;;;;;;1.60;0.90;;;;;;;;;;4984816;28;20648;-77
2022/09/22 13:09:10;;;;;;;3.60;1.10;;;;;;;;;;4991626;28;20476;-78
2022/09/22 13:12:01;;;;;;;0.93;0.93;;;;;;;;;;4992946;28;21018;-77
2022/09/22 13:14:46;;;;;;;1.00;1.00;;;;;;;;;;4972525;28;20463;-76
2022/09/22 13:17:32;;;;;;;0.80;0.80;;;;;;;;;;4992788;28;20661;-77
2022/09/22 13:20:01;;;;;;;1.00;0.90;;;;;;;;;;4993467;28;20464;-77
2022/09/22 13:22:28;;;;;;;1.27;1.17;;;;;;;;;;4991825;28;20515;-76
2022/09/22 13:24:55;;;;;;;1.33;1.30;;;;;;;;;;4991340;28;20440;-79
2022/09/22 13:27:22;;;;;;;1.53;1.20;;;;;;;;;;4993525;28;20451;-78
2022/09/22 13:29:58;;;;;;;1.10;1.00;;;;;;;;;;4993141;28;20495;-75
2022/09/22 13:32:27;;;;;;;0.90;0.90;;;;;;;;;;4992709;28;20493;-77
2022/09/22 13:34:54;;;;;;;1.17;0.90;;;;;;;;;;4992208;28;20467;-77
2022/09/22 13:37:24;;;;;;;1.10;1.00;;;;;;;;;;4988242;28;20444;-76
2022/09/22 13:39:52;;;;;;;1.13;1.13;;;;;;;;;;4994217;28;20503;-78
2022/09/22 13:42:22;;;;;;;1.03;1.00;;;;;;;;;;4994244;28;20487;-77
2022/09/22 13:44:50;;;;;;;1.10;1.00;;;;;;;;;;4992992;28;20517;-78
2022/09/22 13:47:20;;;;;;;1.30;1.20;;;;;;;;;;4995474;28;20856;-76
2022/09/22 13:49:50;;;;;;;1.37;1.37;;;;;;;;;;4996824;28;20531;-78
2022/09/22 13:52:20;;;;;;;1.30;1.20;;;;;;;;;;4993931;28;20950;-76
2022/09/22 13:54:50;;;;;;;0.80;0.80;;;;;;;;;;4992872;28;20499;-77
2022/09/22 13:57:20;;;;;;;1.20;1.10;;;;;;;;;;4994769;28;20448;-76
2022/09/22 13:59:47;;;;;;;0.87;0.87;;;;;;;;;;4996013;28;20469;-76
2022/09/22 14:02:14;;;;;;;1.00;1.00;;;;;;;;;;4996924;28;20480;-77
2022/09/22 14:04:49;;;;;;;5.30;4.03;;;;;;;;;;5002429;28;20867;-77
2022/09/22 14:07:16;;;;;;;1.33;1.00;;;;;;;;;;4999221;28;20475;-75
2022/09/22 14:09:44;;;;;;;1.20;1.20;;;;;;;;;;4997049;28;20456;-77
2022/09/22 14:12:12;;;;;;;2.47;0.97;;;;;;;;;;4996199;28;20440;-77
2022/09/22 14:14:39;;;;;;;1.10;1.00;;;;;;;;;;4989681;28;20460;-77
2022/09/22 14:17:08;;;;;;;1.10;1.00;;;;;;;;;;4991908;28;20475;-76
2022/09/22 14:19:38;;;;;;;1.47;1.37;;;;;;;;;;4995364;28;20534;-77
2022/09/22 14:22:07;;;;;;;0.97;0.97;;;;;;;;;;4999490;28;20500;-78
2022/09/22 14:24:35;;;;;;;1.27;0.90;;;;;;;;;;5006074;28;20443;-77
2022/09/22 14:27:04;;;;;;;1.07;0.97;;;;;;;;;;4998019;28;20436;-76
2022/09/22 14:29:34;;;;;;;0.90;0.90;;;;;;;;;;4994449;28;20467;-78
2022/09/22 14:32:06;;;;;;;1.00;1.00;;;;;;;;;;4993852;28;20453;-76
2022/09/22 14:34:34;;;;;;;1.07;0.97;;;;;;;;;;4990737;28;20448;-77
2022/09/22 14:37:15;;;;;;;0.87;0.87;;;;;;;;;;4993810;28;20933;-78
2022/09/22 14:39:43;;;;;;;1.27;1.27;;;;;;;;;;4993674;28;20596;-77
2022/09/22 14:42:16;;;;;;;3.40;1.20;;;;;;;;;;4991558;28;20499;-77
2022/09/22 14:44:47;;;;;;;1.40;1.30;;;;;;;;;;4992632;28;20483;-77
2022/09/22 14:47:38;;;;;;;1.00;1.00;;;;;;;;;;4993923;28;20951;-79
2022/09/22 14:50:09;;;;;;;1.10;1.10;;;;;;;;;;4992889;28;20478;-77
2022/09/22 14:52:39;;;;;;;1.20;1.10;;;;;;;;;;4991383;28;20444;-78
2022/09/22 14:55:10;;;;;;;1.20;1.10;;;;;;;;;;4989729;28;20452;-77
2022/09/22 14:57:38;;;;;;;1.40;1.30;;;;;;;;;;4992028;28;20444;-78
2022/09/22 15:02:53;;;;;;;1.30;1.30;;;;;;;;;;4988336;28;20466;-77
2022/09/22 15:05:25;;;;;;;1.67;1.27;;;;;;;;;;4991703;28;20503;-78
2022/09/22 15:07:52;;;;;;;0.90;0.90;;;;;;;;;;4991315;28;20598;-78
2022/09/22 15:10:20;;;;;;;1.10;1.00;;;;;;;;;;4991532;28;20447;-78
2022/09/22 15:12:48;;;;;;;2.17;0.90;;;;;;;;;;4991324;28;20440;-78
2022/09/22 15:15:18;;;;;;;1.40;1.23;;;;;;;;;;4991501;28;21085;-78
2022/09/22 15:20:33;;;;;;;1.27;1.20;;;;;;;;;;4991868;28;20494;-77
2022/09/22 15:23:01;;;;;;;1.10;1.10;;;;;;;;;;4990643;28;20480;-80